sensor_id;sensor_type;location;lat;lon;timestamp;P1;durP1;ratioP1;P2;durP2;ratioP2
25581;SDS011;13462;50.764;4.332;2022-07-25T00:00:00;8.13;;;6.30;;
25581;SDS011;13462;50.764;4.332;2022-07-25T00:02:26;9.90;;;6.70;;
25581;SDS011;13462;50.764;4.332;2022-07-25T00:04:51;9.18;;;6.80;;
25581;SDS011;13462;50.764;4.332;2022-07-25T00:07:17;8.90;;;6.65;;
25581;SDS011;13462;50.764;4.332;2022-07-25T00:09:43;7.53;;;6.82;;
25581;SDS011;13462;50.764;4.332;2022-07-25T00:12:08;7.28;;;6.57;;
25581;SDS011;13462;50.764;4.332;2022-07-25T00:14:34;10.80;;;6.75;;
25581;SDS011;13462;50.764;4.332;2022-07-25T00:17:00;8.20;;;6.80;;
25581;SDS011;13462;50.764;4.332;2022-07-25T00:19:25;10.07;;;7.45;;
25581;SDS011;13462;50.764;4.332;2022-07-25T00:21:51;8.10;;;6.43;;
25581;SDS011;13462;50.764;4.332;2022-07-25T00:24:16;12.48;;;7.32;;
25581;SDS011;13462;50.764;4.332;2022-07-25T00:26:42;8.63;;;7.10;;
25581;SDS011;13462;50.764;4.332;2022-07-25T00:29:08;8.15;;;7.30;;
25581;SDS011;13462;50.764;4.332;2022-07-25T00:31:33;9.38;;;7.28;;
25581;SDS011;13462;50.764;4.332;2022-07-25T00:33:59;8.93;;;7.57;;
25581;SDS011;13462;50.764;4.332;2022-07-25T00:36:25;10.82;;;7.68;;
25581;SDS011;13462;50.764;4.332;2022-07-25T00:38:51;12.52;;;7.75;;
25581;SDS011;13462;50.764;4.332;2022-07-25T00:41:16;7.18;;;6.47;;
25581;SDS011;13462;50.764;4.332;2022-07-25T00:43:42;7.85;;;7.15;;
25581;SDS011;13462;50.764;4.332;2022-07-25T00:46:12;8.43;;;7.28;;
25581;SDS011;13462;50.764;4.332;2022-07-25T00:48:39;12.45;;;8.20;;
25581;SDS011;13462;50.764;4.332;2022-07-25T00:51:05;7.97;;;6.50;;
25581;SDS011;13462;50.764;4.332;2022-07-25T00:53:31;10.88;;;7.72;;
25581;SDS011;13462;50.764;4.332;2022-07-25T00:55:57;9.27;;;7.40;;
25581;SDS011;13462;50.764;4.332;2022-07-25T00:58:23;10.05;;;7.25;;
25581;SDS011;13462;50.764;4.332;2022-07-25T01:00:49;7.65;;;6.18;;
25581;SDS011;13462;50.764;4.332;2022-07-25T01:03:14;9.43;;;7.13;;
25581;SDS011;13462;50.764;4.332;2022-07-25T01:05:40;10.18;;;7.72;;
25581;SDS011;13462;50.764;4.332;2022-07-25T01:08:07;11.50;;;7.65;;
25581;SDS011;13462;50.764;4.332;2022-07-25T01:10:33;10.80;;;7.28;;
25581;SDS011;13462;50.764;4.332;2022-07-25T01:12:59;9.98;;;7.25;;
25581;SDS011;13462;50.764;4.332;2022-07-25T01:15:25;9.63;;;7.72;;
25581;SDS011;13462;50.764;4.332;2022-07-25T01:17:51;8.25;;;7.45;;
25581;SDS011;13462;50.764;4.332;2022-07-25T01:20:17;12.52;;;7.43;;
25581;SDS011;13462;50.764;4.332;2022-07-25T01:22:44;9.00;;;7.13;;
25581;SDS011;13462;50.764;4.332;2022-07-25T01:25:12;8.18;;;7.13;;
25581;SDS011;13462;50.764;4.332;2022-07-25T01:27:38;8.85;;;7.18;;
25581;SDS011;13462;50.764;4.332;2022-07-25T01:30:05;10.07;;;7.63;;
25581;SDS011;13462;50.764;4.332;2022-07-25T01:32:32;10.65;;;7.68;;
25581;SDS011;13462;50.764;4.332;2022-07-25T01:35:00;11.32;;;7.55;;
25581;SDS011;13462;50.764;4.332;2022-07-25T01:37:26;8.88;;;7.38;;
25581;SDS011;13462;50.764;4.332;2022-07-25T01:39:51;11.38;;;7.78;;
25581;SDS011;13462;50.764;4.332;2022-07-25T01:42:17;8.70;;;7.60;;
25581;SDS011;13462;50.764;4.332;2022-07-25T01:44:43;9.20;;;7.78;;
25581;SDS011;13462;50.764;4.332;2022-07-25T01:47:08;8.68;;;7.53;;
25581;SDS011;13462;50.764;4.332;2022-07-25T01:49:34;11.82;;;7.30;;
25581;SDS011;13462;50.764;4.332;2022-07-25T01:51:59;8.88;;;7.65;;
25581;SDS011;13462;50.764;4.332;2022-07-25T01:54:25;11.30;;;7.35;;
25581;SDS011;13462;50.764;4.332;2022-07-25T01:56:51;10.27;;;7.63;;
25581;SDS011;13462;50.764;4.332;2022-07-25T01:59:16;10.57;;;8.00;;
25581;SDS011;13462;50.764;4.332;2022-07-25T02:01:42;8.88;;;6.90;;
25581;SDS011;13462;50.764;4.332;2022-07-25T02:04:08;11.75;;;7.38;;
25581;SDS011;13462;50.764;4.332;2022-07-25T02:06:34;10.10;;;7.60;;
25581;SDS011;13462;50.764;4.332;2022-07-25T02:09:00;10.13;;;7.95;;
25581;SDS011;13462;50.764;4.332;2022-07-25T02:11:26;9.85;;;7.53;;
25581;SDS011;13462;50.764;4.332;2022-07-25T02:13:52;8.23;;;7.43;;
25581;SDS011;13462;50.764;4.332;2022-07-25T02:16:17;11.00;;;7.35;;
25581;SDS011;13462;50.764;4.332;2022-07-25T02:18:43;10.50;;;7.60;;
25581;SDS011;13462;50.764;4.332;2022-07-25T02:21:09;14.32;;;7.50;;
25581;SDS011;13462;50.764;4.332;2022-07-25T02:23:35;9.65;;;7.55;;
25581;SDS011;13462;50.764;4.332;2022-07-25T02:26:01;9.95;;;7.93;;
25581;SDS011;13462;50.764;4.332;2022-07-25T02:28:27;9.73;;;7.65;;
25581;SDS011;13462;50.764;4.332;2022-07-25T02:30:53;8.25;;;7.30;;
25581;SDS011;13462;50.764;4.332;2022-07-25T02:33:19;10.13;;;7.72;;
25581;SDS011;13462;50.764;4.332;2022-07-25T02:35:44;10.73;;;8.43;;
25581;SDS011;13462;50.764;4.332;2022-07-25T02:38:10;8.48;;;7.68;;
25581;SDS011;13462;50.764;4.332;2022-07-25T02:40:43;8.30;;;6.95;;
25581;SDS011;13462;50.764;4.332;2022-07-25T02:43:12;8.73;;;7.82;;
25581;SDS011;13462;50.764;4.332;2022-07-25T02:45:38;11.35;;;7.60;;
25581;SDS011;13462;50.764;4.332;2022-07-25T02:48:04;9.73;;;8.50;;
25581;SDS011;13462;50.764;4.332;2022-07-25T02:50:30;9.65;;;7.97;;
25581;SDS011;13462;50.764;4.332;2022-07-25T02:52:55;8.52;;;7.43;;
25581;SDS011;13462;50.764;4.332;2022-07-25T02:55:21;8.65;;;7.57;;
25581;SDS011;13462;50.764;4.332;2022-07-25T02:57:47;10.30;;;8.48;;
25581;SDS011;13462;50.764;4.332;2022-07-25T03:00:12;12.82;;;9.23;;
25581;SDS011;13462;50.764;4.332;2022-07-25T03:02:39;9.32;;;8.38;;
25581;SDS011;13462;50.764;4.332;2022-07-25T03:05:06;10.32;;;9.10;;
25581;SDS011;13462;50.764;4.332;2022-07-25T03:07:33;12.07;;;8.70;;
25581;SDS011;13462;50.764;4.332;2022-07-25T03:09:59;12.13;;;8.52;;
25581;SDS011;13462;50.764;4.332;2022-07-25T03:12:25;10.40;;;8.27;;
25581;SDS011;13462;50.764;4.332;2022-07-25T03:14:51;8.82;;;7.97;;
25581;SDS011;13462;50.764;4.332;2022-07-25T03:17:16;9.63;;;7.97;;
25581;SDS011;13462;50.764;4.332;2022-07-25T03:19:42;11.02;;;8.32;;
25581;SDS011;13462;50.764;4.332;2022-07-25T03:22:08;11.80;;;8.70;;
25581;SDS011;13462;50.764;4.332;2022-07-25T03:24:33;9.07;;;7.95;;
25581;SDS011;13462;50.764;4.332;2022-07-25T03:26:59;8.38;;;7.47;;
25581;SDS011;13462;50.764;4.332;2022-07-25T03:29:25;11.80;;;8.23;;
25581;SDS011;13462;50.764;4.332;2022-07-25T03:31:50;12.07;;;8.18;;
25581;SDS011;13462;50.764;4.332;2022-07-25T03:34:16;10.73;;;8.73;;
25581;SDS011;13462;50.764;4.332;2022-07-25T03:36:41;8.85;;;7.90;;
25581;SDS011;13462;50.764;4.332;2022-07-25T03:39:07;9.60;;;8.30;;
25581;SDS011;13462;50.764;4.332;2022-07-25T03:41:32;8.98;;;7.70;;
25581;SDS011;13462;50.764;4.332;2022-07-25T03:43:58;8.63;;;7.50;;
25581;SDS011;13462;50.764;4.332;2022-07-25T03:46:24;9.27;;;7.47;;
25581;SDS011;13462;50.764;4.332;2022-07-25T03:48:49;8.75;;;7.57;;
25581;SDS011;13462;50.764;4.332;2022-07-25T03:51:15;12.55;;;7.63;;
25581;SDS011;13462;50.764;4.332;2022-07-25T03:53:40;9.15;;;8.23;;
25581;SDS011;13462;50.764;4.332;2022-07-25T03:56:24;11.52;;;7.57;;
25581;SDS011;13462;50.764;4.332;2022-07-25T03:58:50;10.68;;;7.53;;
25581;SDS011;13462;50.764;4.332;2022-07-25T04:01:16;12.85;;;8.60;;
25581;SDS011;13462;50.764;4.332;2022-07-25T04:03:41;10.57;;;8.38;;
25581;SDS011;13462;50.764;4.332;2022-07-25T04:06:07;9.10;;;7.32;;
25581;SDS011;13462;50.764;4.332;2022-07-25T04:08:32;11.77;;;8.90;;
25581;SDS011;13462;50.764;4.332;2022-07-25T04:10:58;11.02;;;8.45;;
25581;SDS011;13462;50.764;4.332;2022-07-25T04:13:24;13.73;;;8.98;;
25581;SDS011;13462;50.764;4.332;2022-07-25T04:15:50;10.57;;;8.75;;
25581;SDS011;13462;50.764;4.332;2022-07-25T04:18:15;9.98;;;8.70;;
25581;SDS011;13462;50.764;4.332;2022-07-25T04:20:41;12.40;;;8.20;;
25581;SDS011;13462;50.764;4.332;2022-07-25T04:23:07;11.25;;;7.72;;
25581;SDS011;13462;50.764;4.332;2022-07-25T04:25:32;9.85;;;7.97;;
25581;SDS011;13462;50.764;4.332;2022-07-25T04:27:58;10.80;;;7.88;;
25581;SDS011;13462;50.764;4.332;2022-07-25T04:30:23;12.65;;;6.78;;
25581;SDS011;13462;50.764;4.332;2022-07-25T04:32:49;9.93;;;7.32;;
25581;SDS011;13462;50.764;4.332;2022-07-25T04:35:14;8.75;;;7.18;;
25581;SDS011;13462;50.764;4.332;2022-07-25T04:37:40;10.93;;;6.45;;
25581;SDS011;13462;50.764;4.332;2022-07-25T04:40:06;7.53;;;6.80;;
25581;SDS011;13462;50.764;4.332;2022-07-25T04:42:33;9.75;;;5.93;;
25581;SDS011;13462;50.764;4.332;2022-07-25T04:44:58;10.32;;;7.10;;
25581;SDS011;13462;50.764;4.332;2022-07-25T04:47:24;10.00;;;5.40;;
25581;SDS011;13462;50.764;4.332;2022-07-25T04:49:49;6.70;;;5.03;;
25581;SDS011;13462;50.764;4.332;2022-07-25T04:52:15;8.68;;;5.50;;
25581;SDS011;13462;50.764;4.332;2022-07-25T04:54:40;10.10;;;5.80;;
25581;SDS011;13462;50.764;4.332;2022-07-25T04:57:06;5.28;;;4.78;;
25581;SDS011;13462;50.764;4.332;2022-07-25T04:59:32;9.02;;;4.88;;
25581;SDS011;13462;50.764;4.332;2022-07-25T05:01:57;10.10;;;4.43;;
25581;SDS011;13462;50.764;4.332;2022-07-25T05:04:23;5.45;;;4.57;;
25581;SDS011;13462;50.764;4.332;2022-07-25T05:06:48;9.50;;;4.43;;
25581;SDS011;13462;50.764;4.332;2022-07-25T05:09:14;6.35;;;4.68;;
25581;SDS011;13462;50.764;4.332;2022-07-25T05:11:40;5.35;;;4.13;;
25581;SDS011;13462;50.764;4.332;2022-07-25T05:14:05;6.97;;;4.05;;
25581;SDS011;13462;50.764;4.332;2022-07-25T05:16:31;7.07;;;4.30;;
25581;SDS011;13462;50.764;4.332;2022-07-25T05:18:56;7.15;;;4.35;;
25581;SDS011;13462;50.764;4.332;2022-07-25T05:21:22;6.03;;;4.72;;
25581;SDS011;13462;50.764;4.332;2022-07-25T05:23:47;8.98;;;4.70;;
25581;SDS011;13462;50.764;4.332;2022-07-25T05:26:13;6.75;;;4.50;;
25581;SDS011;13462;50.764;4.332;2022-07-25T05:28:38;4.85;;;3.90;;
25581;SDS011;13462;50.764;4.332;2022-07-25T05:31:04;5.65;;;4.55;;
25581;SDS011;13462;50.764;4.332;2022-07-25T05:33:30;5.80;;;3.95;;
25581;SDS011;13462;50.764;4.332;2022-07-25T05:35:55;9.38;;;4.63;;
25581;SDS011;13462;50.764;4.332;2022-07-25T05:38:21;7.03;;;4.32;;
25581;SDS011;13462;50.764;4.332;2022-07-25T05:40:47;8.40;;;4.07;;
25581;SDS011;13462;50.764;4.332;2022-07-25T05:43:13;10.65;;;4.30;;
25581;SDS011;13462;50.764;4.332;2022-07-25T05:45:38;6.95;;;3.80;;
25581;SDS011;13462;50.764;4.332;2022-07-25T05:48:04;9.27;;;3.75;;
25581;SDS011;13462;50.764;4.332;2022-07-25T05:50:30;10.82;;;4.13;;
25581;SDS011;13462;50.764;4.332;2022-07-25T05:52:56;13.02;;;3.50;;
25581;SDS011;13462;50.764;4.332;2022-07-25T05:55:21;4.95;;;4.05;;
25581;SDS011;13462;50.764;4.332;2022-07-25T05:57:47;6.18;;;3.35;;
25581;SDS011;13462;50.764;4.332;2022-07-25T06:00:12;4.38;;;2.80;;
25581;SDS011;13462;50.764;4.332;2022-07-25T06:02:38;5.75;;;3.40;;
25581;SDS011;13462;50.764;4.332;2022-07-25T06:05:04;9.35;;;3.55;;
25581;SDS011;13462;50.764;4.332;2022-07-25T06:07:30;8.75;;;2.90;;
25581;SDS011;13462;50.764;4.332;2022-07-25T06:09:55;11.85;;;3.80;;
25581;SDS011;13462;50.764;4.332;2022-07-25T06:12:21;8.02;;;3.40;;
25581;SDS011;13462;50.764;4.332;2022-07-25T06:14:47;12.75;;;3.47;;
25581;SDS011;13462;50.764;4.332;2022-07-25T06:17:12;7.97;;;3.95;;
25581;SDS011;13462;50.764;4.332;2022-07-25T06:19:38;7.03;;;3.83;;
25581;SDS011;13462;50.764;4.332;2022-07-25T06:22:03;12.68;;;4.00;;
25581;SDS011;13462;50.764;4.332;2022-07-25T06:24:29;7.60;;;3.50;;
25581;SDS011;13462;50.764;4.332;2022-07-25T06:26:55;10.25;;;3.55;;
25581;SDS011;13462;50.764;4.332;2022-07-25T06:29:20;5.35;;;2.95;;
25581;SDS011;13462;50.764;4.332;2022-07-25T06:31:46;7.53;;;3.33;;
25581;SDS011;13462;50.764;4.332;2022-07-25T06:34:11;8.95;;;2.95;;
25581;SDS011;13462;50.764;4.332;2022-07-25T06:36:37;6.97;;;2.97;;
25581;SDS011;13462;50.764;4.332;2022-07-25T06:39:02;14.63;;;3.00;;
25581;SDS011;13462;50.764;4.332;2022-07-25T06:41:28;7.90;;;3.58;;
25581;SDS011;13462;50.764;4.332;2022-07-25T06:43:54;7.57;;;3.13;;
25581;SDS011;13462;50.764;4.332;2022-07-25T06:46:19;12.35;;;3.83;;
25581;SDS011;13462;50.764;4.332;2022-07-25T06:48:45;6.07;;;3.20;;
25581;SDS011;13462;50.764;4.332;2022-07-25T06:51:11;11.38;;;3.85;;
25581;SDS011;13462;50.764;4.332;2022-07-25T06:53:36;10.73;;;4.18;;
25581;SDS011;13462;50.764;4.332;2022-07-25T06:56:02;8.48;;;3.10;;
25581;SDS011;13462;50.764;4.332;2022-07-25T06:58:28;6.82;;;3.13;;
25581;SDS011;13462;50.764;4.332;2022-07-25T07:00:53;6.03;;;3.22;;
25581;SDS011;13462;50.764;4.332;2022-07-25T07:03:19;7.13;;;3.15;;
25581;SDS011;13462;50.764;4.332;2022-07-25T07:05:45;7.20;;;3.78;;
25581;SDS011;13462;50.764;4.332;2022-07-25T07:08:10;12.15;;;3.30;;
25581;SDS011;13462;50.764;4.332;2022-07-25T07:10:36;8.30;;;3.85;;
25581;SDS011;13462;50.764;4.332;2022-07-25T07:13:10;7.68;;;3.75;;
25581;SDS011;13462;50.764;4.332;2022-07-25T07:15:37;7.13;;;3.38;;
25581;SDS011;13462;50.764;4.332;2022-07-25T07:18:07;4.80;;;3.50;;
25581;SDS011;13462;50.764;4.332;2022-07-25T07:20:33;7.70;;;3.40;;
25581;SDS011;13462;50.764;4.332;2022-07-25T07:22:59;7.10;;;3.17;;
25581;SDS011;13462;50.764;4.332;2022-07-25T07:25:24;5.28;;;2.92;;
25581;SDS011;13462;50.764;4.332;2022-07-25T07:27:50;6.95;;;3.20;;
25581;SDS011;13462;50.764;4.332;2022-07-25T07:30:16;8.13;;;3.10;;
25581;SDS011;13462;50.764;4.332;2022-07-25T07:32:43;5.50;;;2.58;;
25581;SDS011;13462;50.764;4.332;2022-07-25T07:35:09;6.82;;;3.30;;
25581;SDS011;13462;50.764;4.332;2022-07-25T07:37:36;12.85;;;2.70;;
25581;SDS011;13462;50.764;4.332;2022-07-25T07:40:03;6.97;;;2.30;;
25581;SDS011;13462;50.764;4.332;2022-07-25T07:42:41;4.82;;;2.08;;
25581;SDS011;13462;50.764;4.332;2022-07-25T07:45:14;4.38;;;2.65;;
25581;SDS011;13462;50.764;4.332;2022-07-25T07:47:41;8.95;;;2.92;;
25581;SDS011;13462;50.764;4.332;2022-07-25T07:50:08;4.10;;;2.60;;
25581;SDS011;13462;50.764;4.332;2022-07-25T07:52:35;8.68;;;3.30;;
25581;SDS011;13462;50.764;4.332;2022-07-25T07:55:01;7.05;;;2.15;;
25581;SDS011;13462;50.764;4.332;2022-07-25T07:57:45;4.35;;;2.70;;
25581;SDS011;13462;50.764;4.332;2022-07-25T08:00:11;9.55;;;2.67;;
25581;SDS011;13462;50.764;4.332;2022-07-25T08:02:45;4.95;;;2.55;;
25581;SDS011;13462;50.764;4.332;2022-07-25T08:05:12;7.25;;;3.45;;
25581;SDS011;13462;50.764;4.332;2022-07-25T08:07:45;6.32;;;2.50;;
25581;SDS011;13462;50.764;4.332;2022-07-25T08:10:11;5.13;;;2.88;;
25581;SDS011;13462;50.764;4.332;2022-07-25T08:12:40;6.78;;;2.63;;
25581;SDS011;13462;50.764;4.332;2022-07-25T08:15:06;5.82;;;2.22;;
25581;SDS011;13462;50.764;4.332;2022-07-25T08:17:32;6.03;;;2.60;;
25581;SDS011;13462;50.764;4.332;2022-07-25T08:19:58;6.53;;;2.65;;
25581;SDS011;13462;50.764;4.332;2022-07-25T08:22:23;6.70;;;3.10;;
25581;SDS011;13462;50.764;4.332;2022-07-25T08:24:58;6.03;;;3.10;;
25581;SDS011;13462;50.764;4.332;2022-07-25T08:27:24;7.65;;;2.13;;
25581;SDS011;13462;50.764;4.332;2022-07-25T08:29:50;4.68;;;2.25;;
25581;SDS011;13462;50.764;4.332;2022-07-25T08:32:16;4.30;;;2.13;;
25581;SDS011;13462;50.764;4.332;2022-07-25T08:34:41;3.22;;;2.10;;
25581;SDS011;13462;50.764;4.332;2022-07-25T08:37:07;5.18;;;2.15;;
25581;SDS011;13462;50.764;4.332;2022-07-25T08:39:33;5.03;;;1.92;;
25581;SDS011;13462;50.764;4.332;2022-07-25T08:41:58;4.80;;;2.22;;
25581;SDS011;13462;50.764;4.332;2022-07-25T08:44:25;4.30;;;2.00;;
25581;SDS011;13462;50.764;4.332;2022-07-25T08:46:55;8.77;;;3.05;;
25581;SDS011;13462;50.764;4.332;2022-07-25T08:49:22;6.35;;;2.50;;
25581;SDS011;13462;50.764;4.332;2022-07-25T08:51:48;3.13;;;2.35;;
25581;SDS011;13462;50.764;4.332;2022-07-25T08:54:15;2.33;;;1.75;;
25581;SDS011;13462;50.764;4.332;2022-07-25T08:56:40;2.75;;;1.80;;
25581;SDS011;13462;50.764;4.332;2022-07-25T08:59:06;4.53;;;1.95;;
25581;SDS011;13462;50.764;4.332;2022-07-25T09:01:33;2.08;;;1.88;;
25581;SDS011;13462;50.764;4.332;2022-07-25T09:03:59;5.65;;;2.65;;
25581;SDS011;13462;50.764;4.332;2022-07-25T09:06:26;3.10;;;2.00;;
25581;SDS011;13462;50.764;4.332;2022-07-25T09:08:56;4.47;;;2.30;;
25581;SDS011;13462;50.764;4.332;2022-07-25T09:11:26;4.15;;;1.90;;
25581;SDS011;13462;50.764;4.332;2022-07-25T09:14:18;5.53;;;2.20;;
25581;SDS011;13462;50.764;4.332;2022-07-25T09:16:43;7.32;;;2.40;;
25581;SDS011;13462;50.764;4.332;2022-07-25T09:19:13;7.38;;;2.05;;
25581;SDS011;13462;50.764;4.332;2022-07-25T09:21:42;6.22;;;2.17;;
25581;SDS011;13462;50.764;4.332;2022-07-25T09:24:10;5.15;;;2.42;;
25581;SDS011;13462;50.764;4.332;2022-07-25T09:29:20;3.60;;;2.15;;
25581;SDS011;13462;50.764;4.332;2022-07-25T09:31:51;5.13;;;2.08;;
25581;SDS011;13462;50.764;4.332;2022-07-25T09:34:28;3.25;;;2.10;;
25581;SDS011;13462;50.764;4.332;2022-07-25T09:37:08;4.95;;;2.22;;
25581;SDS011;13462;50.764;4.332;2022-07-25T09:42:12;3.97;;;2.28;;
25581;SDS011;13462;50.764;4.332;2022-07-25T09:44:41;5.35;;;2.40;;
25581;SDS011;13462;50.764;4.332;2022-07-25T09:47:11;7.00;;;2.47;;
25581;SDS011;13462;50.764;4.332;2022-07-25T09:49:42;7.30;;;2.47;;
25581;SDS011;13462;50.764;4.332;2022-07-25T09:52:11;6.28;;;2.42;;
25581;SDS011;13462;50.764;4.332;2022-07-25T09:54:37;6.47;;;2.58;;
25581;SDS011;13462;50.764;4.332;2022-07-25T09:57:04;5.60;;;2.70;;
25581;SDS011;13462;50.764;4.332;2022-07-25T09:59:31;6.45;;;2.42;;
25581;SDS011;13462;50.764;4.332;2022-07-25T10:07:40;4.03;;;2.40;;
25581;SDS011;13462;50.764;4.332;2022-07-25T10:10:18;5.28;;;2.63;;
25581;SDS011;13462;50.764;4.332;2022-07-25T10:15:46;5.20;;;2.42;;
25581;SDS011;13462;50.764;4.332;2022-07-25T10:18:14;6.25;;;3.13;;
25581;SDS011;13462;50.764;4.332;2022-07-25T10:20:42;4.47;;;2.67;;
25581;SDS011;13462;50.764;4.332;2022-07-25T10:23:19;3.97;;;2.53;;
25581;SDS011;13462;50.764;4.332;2022-07-25T10:25:59;5.45;;;2.60;;
25581;SDS011;13462;50.764;4.332;2022-07-25T10:28:43;3.92;;;2.42;;
25581;SDS011;13462;50.764;4.332;2022-07-25T10:31:17;5.75;;;3.25;;
25581;SDS011;13462;50.764;4.332;2022-07-25T10:33:52;5.97;;;3.20;;
25581;SDS011;13462;50.764;4.332;2022-07-25T10:36:23;5.05;;;2.58;;
25581;SDS011;13462;50.764;4.332;2022-07-25T10:38:55;4.15;;;2.78;;
25581;SDS011;13462;50.764;4.332;2022-07-25T10:41:22;7.28;;;3.00;;
25581;SDS011;13462;50.764;4.332;2022-07-25T10:43:50;6.68;;;3.30;;
25581;SDS011;13462;50.764;4.332;2022-07-25T10:46:19;6.93;;;3.05;;
25581;SDS011;13462;50.764;4.332;2022-07-25T10:51:26;9.18;;;3.65;;
25581;SDS011;13462;50.764;4.332;2022-07-25T10:53:54;8.38;;;3.08;;
25581;SDS011;13462;50.764;4.332;2022-07-25T10:56:21;3.80;;;2.85;;
25581;SDS011;13462;50.764;4.332;2022-07-25T11:01:24;8.20;;;3.30;;
25581;SDS011;13462;50.764;4.332;2022-07-25T11:03:56;5.80;;;3.40;;
25581;SDS011;13462;50.764;4.332;2022-07-25T11:06:34;11.10;;;3.63;;
25581;SDS011;13462;50.764;4.332;2022-07-25T11:11:41;9.75;;;3.30;;
25581;SDS011;13462;50.764;4.332;2022-07-25T11:14:22;13.93;;;3.47;;
25581;SDS011;13462;50.764;4.332;2022-07-25T11:16:50;6.25;;;3.03;;
25581;SDS011;13462;50.764;4.332;2022-07-25T11:19:21;5.95;;;3.08;;
25581;SDS011;13462;50.764;4.332;2022-07-25T11:21:58;5.65;;;2.65;;
25581;SDS011;13462;50.764;4.332;2022-07-25T11:24:34;7.47;;;3.38;;
25581;SDS011;13462;50.764;4.332;2022-07-25T11:27:04;6.05;;;3.25;;
25581;SDS011;13462;50.764;4.332;2022-07-25T11:29:31;9.35;;;2.92;;
25581;SDS011;13462;50.764;4.332;2022-07-25T11:31:59;13.55;;;3.13;;
25581;SDS011;13462;50.764;4.332;2022-07-25T11:34:31;12.05;;;3.75;;
25581;SDS011;13462;50.764;4.332;2022-07-25T11:37:00;8.48;;;3.20;;
25581;SDS011;13462;50.764;4.332;2022-07-25T11:39:27;4.90;;;2.97;;
25581;SDS011;13462;50.764;4.332;2022-07-25T11:42:06;6.13;;;3.15;;
25581;SDS011;13462;50.764;4.332;2022-07-25T11:44:34;10.20;;;4.07;;
25581;SDS011;13462;50.764;4.332;2022-07-25T11:47:05;9.38;;;3.53;;
25581;SDS011;13462;50.764;4.332;2022-07-25T11:49:43;12.50;;;3.80;;
25581;SDS011;13462;50.764;4.332;2022-07-25T11:54:49;7.72;;;3.60;;
25581;SDS011;13462;50.764;4.332;2022-07-25T11:57:28;6.95;;;3.50;;
25581;SDS011;13462;50.764;4.332;2022-07-25T11:59:55;11.20;;;3.78;;
25581;SDS011;13462;50.764;4.332;2022-07-25T12:02:25;7.47;;;3.35;;
25581;SDS011;13462;50.764;4.332;2022-07-25T12:05:02;6.65;;;3.03;;
25581;SDS011;13462;50.764;4.332;2022-07-25T12:07:42;6.55;;;3.20;;
25581;SDS011;13462;50.764;4.332;2022-07-25T12:10:14;8.48;;;3.45;;
25581;SDS011;13462;50.764;4.332;2022-07-25T12:12:46;12.90;;;3.13;;
25581;SDS011;13462;50.764;4.332;2022-07-25T12:15:37;6.65;;;2.72;;
25581;SDS011;13462;50.764;4.332;2022-07-25T12:18:05;5.63;;;2.80;;
25581;SDS011;13462;50.764;4.332;2022-07-25T12:20:34;7.78;;;3.22;;
25581;SDS011;13462;50.764;4.332;2022-07-25T12:23:03;7.45;;;3.22;;
25581;SDS011;13462;50.764;4.332;2022-07-25T12:25:30;7.43;;;3.15;;
25581;SDS011;13462;50.764;4.332;2022-07-25T12:27:57;7.13;;;3.20;;
25581;SDS011;13462;50.764;4.332;2022-07-25T12:30:24;7.72;;;3.50;;
25581;SDS011;13462;50.764;4.332;2022-07-25T12:32:54;7.72;;;3.72;;
25581;SDS011;13462;50.764;4.332;2022-07-25T12:35:20;9.60;;;3.72;;
25581;SDS011;13462;50.764;4.332;2022-07-25T12:37:46;6.18;;;3.20;;
25581;SDS011;13462;50.764;4.332;2022-07-25T12:40:13;9.13;;;3.13;;
25581;SDS011;13462;50.764;4.332;2022-07-25T12:42:40;7.20;;;3.47;;
25581;SDS011;13462;50.764;4.332;2022-07-25T12:45:06;6.75;;;3.25;;
25581;SDS011;13462;50.764;4.332;2022-07-25T12:47:33;8.48;;;3.30;;
25581;SDS011;13462;50.764;4.332;2022-07-25T12:49:59;11.77;;;3.13;;
25581;SDS011;13462;50.764;4.332;2022-07-25T12:52:25;12.13;;;3.10;;
25581;SDS011;13462;50.764;4.332;2022-07-25T12:54:50;5.47;;;3.15;;
25581;SDS011;13462;50.764;4.332;2022-07-25T12:57:16;5.28;;;2.90;;
25581;SDS011;13462;50.764;4.332;2022-07-25T12:59:44;9.02;;;3.15;;
25581;SDS011;13462;50.764;4.332;2022-07-25T13:02:10;8.23;;;3.65;;
25581;SDS011;13462;50.764;4.332;2022-07-25T13:04:36;5.38;;;2.95;;
25581;SDS011;13462;50.764;4.332;2022-07-25T13:07:02;6.13;;;2.78;;
25581;SDS011;13462;50.764;4.332;2022-07-25T13:09:27;9.38;;;3.00;;
25581;SDS011;13462;50.764;4.332;2022-07-25T13:11:53;7.97;;;3.13;;
25581;SDS011;13462;50.764;4.332;2022-07-25T13:14:19;6.93;;;2.78;;
25581;SDS011;13462;50.764;4.332;2022-07-25T13:16:46;6.10;;;3.05;;
25581;SDS011;13462;50.764;4.332;2022-07-25T13:19:12;10.18;;;2.90;;
25581;SDS011;13462;50.764;4.332;2022-07-25T13:21:39;7.18;;;3.08;;
25581;SDS011;13462;50.764;4.332;2022-07-25T13:24:05;9.57;;;3.13;;
25581;SDS011;13462;50.764;4.332;2022-07-25T13:26:32;10.60;;;3.28;;
25581;SDS011;13462;50.764;4.332;2022-07-25T13:28:58;6.95;;;2.60;;
25581;SDS011;13462;50.764;4.332;2022-07-25T13:31:23;9.55;;;3.03;;
25581;SDS011;13462;50.764;4.332;2022-07-25T13:33:49;14.73;;;3.60;;
25581;SDS011;13462;50.764;4.332;2022-07-25T13:36:16;4.57;;;2.30;;
25581;SDS011;13462;50.764;4.332;2022-07-25T13:38:42;10.75;;;3.47;;
25581;SDS011;13462;50.764;4.332;2022-07-25T13:41:09;11.88;;;2.67;;
25581;SDS011;13462;50.764;4.332;2022-07-25T13:43:35;8.75;;;2.60;;
25581;SDS011;13462;50.764;4.332;2022-07-25T13:46:00;6.63;;;2.25;;
25581;SDS011;13462;50.764;4.332;2022-07-25T13:48:27;5.50;;;2.00;;
25581;SDS011;13462;50.764;4.332;2022-07-25T13:50:53;9.88;;;2.22;;
25581;SDS011;13462;50.764;4.332;2022-07-25T13:53:19;8.52;;;2.13;;
25581;SDS011;13462;50.764;4.332;2022-07-25T13:55:45;8.93;;;2.05;;
25581;SDS011;13462;50.764;4.332;2022-07-25T13:58:11;8.18;;;1.95;;
25581;SDS011;13462;50.764;4.332;2022-07-25T14:00:37;9.77;;;2.47;;
25581;SDS011;13462;50.764;4.332;2022-07-25T14:03:03;4.75;;;1.77;;
25581;SDS011;13462;50.764;4.332;2022-07-25T14:05:29;4.25;;;1.73;;
25581;SDS011;13462;50.764;4.332;2022-07-25T14:07:54;7.15;;;2.20;;
25581;SDS011;13462;50.764;4.332;2022-07-25T14:10:20;5.72;;;2.10;;
25581;SDS011;13462;50.764;4.332;2022-07-25T14:12:46;4.18;;;2.00;;
25581;SDS011;13462;50.764;4.332;2022-07-25T14:15:12;10.05;;;2.13;;
25581;SDS011;13462;50.764;4.332;2022-07-25T14:17:37;6.20;;;2.17;;
25581;SDS011;13462;50.764;4.332;2022-07-25T14:20:03;5.15;;;2.53;;
25581;SDS011;13462;50.764;4.332;2022-07-25T14:22:30;5.63;;;2.33;;
25581;SDS011;13462;50.764;4.332;2022-07-25T14:24:56;7.00;;;2.22;;
25581;SDS011;13462;50.764;4.332;2022-07-25T14:27:22;8.68;;;2.80;;
25581;SDS011;13462;50.764;4.332;2022-07-25T14:29:48;3.88;;;1.92;;
25581;SDS011;13462;50.764;4.332;2022-07-25T14:32:13;6.95;;;1.63;;
25581;SDS011;13462;50.764;4.332;2022-07-25T14:34:39;12.18;;;2.28;;
25581;SDS011;13462;50.764;4.332;2022-07-25T14:37:05;8.52;;;1.98;;
25581;SDS011;13462;50.764;4.332;2022-07-25T14:39:31;4.18;;;1.70;;
25581;SDS011;13462;50.764;4.332;2022-07-25T14:41:57;4.50;;;1.75;;
25581;SDS011;13462;50.764;4.332;2022-07-25T14:44:23;9.85;;;2.15;;
25581;SDS011;13462;50.764;4.332;2022-07-25T14:46:51;10.18;;;2.10;;
25581;SDS011;13462;50.764;4.332;2022-07-25T14:49:17;9.85;;;2.40;;
25581;SDS011;13462;50.764;4.332;2022-07-25T14:51:43;7.45;;;2.15;;
25581;SDS011;13462;50.764;4.332;2022-07-25T14:54:11;12.65;;;2.25;;
25581;SDS011;13462;50.764;4.332;2022-07-25T14:56:37;5.88;;;1.48;;
25581;SDS011;13462;50.764;4.332;2022-07-25T14:59:04;8.13;;;2.22;;
25581;SDS011;13462;50.764;4.332;2022-07-25T15:01:30;6.70;;;1.60;;
25581;SDS011;13462;50.764;4.332;2022-07-25T15:03:56;5.53;;;1.40;;
25581;SDS011;13462;50.764;4.332;2022-07-25T15:06:22;5.18;;;1.70;;
25581;SDS011;13462;50.764;4.332;2022-07-25T15:08:48;5.95;;;1.40;;